sensor_id;sensor_type;location;lat;lon;timestamp;P1;durP1;ratioP1;P2;durP2;ratioP2
17175;SDS011;8703;48.996;9.594;2023-04-09T00:00:44;9.20;;;5.90;;
17175;SDS011;8703;48.996;9.594;2023-04-09T00:03:12;7.60;;;5.60;;
17175;SDS011;8703;48.996;9.594;2023-04-09T00:05:39;8.20;;;5.60;;
17175;SDS011;8703;48.996;9.594;2023-04-09T00:08:07;8.03;;;5.87;;
17175;SDS011;8703;48.996;9.594;2023-04-09T00:10:34;8.70;;;5.87;;
17175;SDS011;8703;48.996;9.594;2023-04-09T00:13:03;7.30;;;5.40;;
17175;SDS011;8703;48.996;9.594;2023-04-09T00:15:30;9.00;;;5.60;;
17175;SDS011;8703;48.996;9.594;2023-04-09T00:17:58;7.97;;;5.63;;
17175;SDS011;8703;48.996;9.594;2023-04-09T00:20:25;8.67;;;4.33;;
17175;SDS011;8703;48.996;9.594;2023-04-09T00:22:52;11.27;;;7.23;;
17175;SDS011;8703;48.996;9.594;2023-04-09T00:25:20;9.10;;;4.60;;
17175;SDS011;8703;48.996;9.594;2023-04-09T00:27:47;11.37;;;7.33;;
17175;SDS011;8703;48.996;9.594;2023-04-09T00:30:16;8.80;;;6.03;;
17175;SDS011;8703;48.996;9.594;2023-04-09T00:32:43;9.67;;;6.13;;
17175;SDS011;8703;48.996;9.594;2023-04-09T00:35:11;8.40;;;5.67;;
17175;SDS011;8703;48.996;9.594;2023-04-09T00:37:38;7.10;;;5.23;;
17175;SDS011;8703;48.996;9.594;2023-04-09T00:40:06;16.67;;;9.13;;
17175;SDS011;8703;48.996;9.594;2023-04-09T00:42:33;17.63;;;9.20;;
17175;SDS011;8703;48.996;9.594;2023-04-09T00:47:30;11.77;;;6.93;;
17175;SDS011;8703;48.996;9.594;2023-04-09T00:49:57;16.07;;;8.90;;
17175;SDS011;8703;48.996;9.594;2023-04-09T00:52:27;10.43;;;5.90;;
17175;SDS011;8703;48.996;9.594;2023-04-09T00:54:55;10.17;;;6.20;;
17175;SDS011;8703;48.996;9.594;2023-04-09T00:57:23;10.07;;;6.10;;
17175;SDS011;8703;48.996;9.594;2023-04-09T00:59:50;10.50;;;6.43;;
17175;SDS011;8703;48.996;9.594;2023-04-09T01:02:18;11.43;;;6.93;;
17175;SDS011;8703;48.996;9.594;2023-04-09T01:04:46;12.07;;;7.10;;
17175;SDS011;8703;48.996;9.594;2023-04-09T01:07:15;11.37;;;6.40;;
17175;SDS011;8703;48.996;9.594;2023-04-09T01:09:49;9.67;;;6.37;;
17175;SDS011;8703;48.996;9.594;2023-04-09T01:12:21;9.23;;;6.00;;
17175;SDS011;8703;48.996;9.594;2023-04-09T01:14:56;10.70;;;7.20;;
17175;SDS011;8703;48.996;9.594;2023-04-09T01:17:29;9.70;;;6.67;;
17175;SDS011;8703;48.996;9.594;2023-04-09T01:20:00;11.70;;;6.70;;
17175;SDS011;8703;48.996;9.594;2023-04-09T01:22:32;10.27;;;6.80;;
17175;SDS011;8703;48.996;9.594;2023-04-09T01:25:13;10.93;;;6.33;;
17175;SDS011;8703;48.996;9.594;2023-04-09T01:27:46;8.60;;;6.20;;
17175;SDS011;8703;48.996;9.594;2023-04-09T01:30:21;9.53;;;6.30;;
17175;SDS011;8703;48.996;9.594;2023-04-09T01:32:49;8.70;;;5.80;;
17175;SDS011;8703;48.996;9.594;2023-04-09T01:35:17;7.83;;;5.53;;
17175;SDS011;8703;48.996;9.594;2023-04-09T01:37:45;9.47;;;6.20;;
17175;SDS011;8703;48.996;9.594;2023-04-09T01:40:12;9.60;;;6.23;;
17175;SDS011;8703;48.996;9.594;2023-04-09T01:42:40;10.13;;;6.00;;
17175;SDS011;8703;48.996;9.594;2023-04-09T01:45:07;9.70;;;6.57;;
17175;SDS011;8703;48.996;9.594;2023-04-09T01:47:38;8.83;;;6.10;;
17175;SDS011;8703;48.996;9.594;2023-04-09T01:50:06;9.47;;;6.77;;
17175;SDS011;8703;48.996;9.594;2023-04-09T01:52:34;9.77;;;6.30;;
17175;SDS011;8703;48.996;9.594;2023-04-09T01:55:02;10.53;;;6.80;;
17175;SDS011;8703;48.996;9.594;2023-04-09T01:57:29;9.13;;;6.07;;
17175;SDS011;8703;48.996;9.594;2023-04-09T01:59:57;9.80;;;6.27;;
17175;SDS011;8703;48.996;9.594;2023-04-09T02:02:26;9.30;;;6.40;;
17175;SDS011;8703;48.996;9.594;2023-04-09T02:04:58;10.97;;;6.47;;
17175;SDS011;8703;48.996;9.594;2023-04-09T02:07:29;10.07;;;6.73;;
17175;SDS011;8703;48.996;9.594;2023-04-09T02:10:00;10.70;;;6.70;;
17175;SDS011;8703;48.996;9.594;2023-04-09T02:12:28;10.83;;;6.03;;
17175;SDS011;8703;48.996;9.594;2023-04-09T02:14:57;14.17;;;7.23;;
17175;SDS011;8703;48.996;9.594;2023-04-09T02:17:25;9.27;;;6.27;;
17175;SDS011;8703;48.996;9.594;2023-04-09T02:19:52;12.60;;;6.67;;
17175;SDS011;8703;48.996;9.594;2023-04-09T02:22:21;10.17;;;6.87;;
17175;SDS011;8703;48.996;9.594;2023-04-09T02:24:49;10.93;;;6.83;;
17175;SDS011;8703;48.996;9.594;2023-04-09T02:27:16;12.23;;;7.30;;
17175;SDS011;8703;48.996;9.594;2023-04-09T02:29:43;12.77;;;8.00;;
17175;SDS011;8703;48.996;9.594;2023-04-09T02:32:11;12.20;;;7.87;;
17175;SDS011;8703;48.996;9.594;2023-04-09T02:34:38;12.77;;;7.40;;
17175;SDS011;8703;48.996;9.594;2023-04-09T02:37:06;12.70;;;7.37;;
17175;SDS011;8703;48.996;9.594;2023-04-09T02:39:35;12.23;;;7.40;;
17175;SDS011;8703;48.996;9.594;2023-04-09T02:42:02;11.77;;;7.17;;
17175;SDS011;8703;48.996;9.594;2023-04-09T02:44:31;12.40;;;7.13;;
17175;SDS011;8703;48.996;9.594;2023-04-09T02:46:59;11.90;;;7.20;;
17175;SDS011;8703;48.996;9.594;2023-04-09T02:49:26;9.93;;;6.53;;
17175;SDS011;8703;48.996;9.594;2023-04-09T02:51:53;13.97;;;8.67;;
17175;SDS011;8703;48.996;9.594;2023-04-09T02:54:21;13.30;;;7.77;;
17175;SDS011;8703;48.996;9.594;2023-04-09T02:56:49;14.70;;;8.43;;
17175;SDS011;8703;48.996;9.594;2023-04-09T02:59:17;16.73;;;8.83;;
17175;SDS011;8703;48.996;9.594;2023-04-09T03:01:44;12.90;;;7.73;;
17175;SDS011;8703;48.996;9.594;2023-04-09T03:04:11;11.13;;;7.00;;
17175;SDS011;8703;48.996;9.594;2023-04-09T03:06:39;12.83;;;7.90;;
17175;SDS011;8703;48.996;9.594;2023-04-09T03:09:06;11.70;;;7.10;;
17175;SDS011;8703;48.996;9.594;2023-04-09T03:11:33;13.07;;;7.80;;
17175;SDS011;8703;48.996;9.594;2023-04-09T03:14:02;12.87;;;7.37;;
17175;SDS011;8703;48.996;9.594;2023-04-09T03:16:29;16.13;;;8.53;;
17175;SDS011;8703;48.996;9.594;2023-04-09T03:18:57;18.40;;;10.77;;
17175;SDS011;8703;48.996;9.594;2023-04-09T03:21:24;21.90;;;12.57;;
17175;SDS011;8703;48.996;9.594;2023-04-09T03:23:52;12.37;;;7.60;;
17175;SDS011;8703;48.996;9.594;2023-04-09T03:26:19;11.33;;;6.77;;
17175;SDS011;8703;48.996;9.594;2023-04-09T03:28:46;11.10;;;7.13;;
17175;SDS011;8703;48.996;9.594;2023-04-09T03:31:15;10.30;;;6.47;;
17175;SDS011;8703;48.996;9.594;2023-04-09T03:33:42;10.07;;;6.53;;
17175;SDS011;8703;48.996;9.594;2023-04-09T03:36:10;14.47;;;9.20;;
17175;SDS011;8703;48.996;9.594;2023-04-09T03:38:37;13.67;;;8.53;;
17175;SDS011;8703;48.996;9.594;2023-04-09T03:41:04;13.27;;;8.37;;
17175;SDS011;8703;48.996;9.594;2023-04-09T03:43:32;11.33;;;7.10;;
17175;SDS011;8703;48.996;9.594;2023-04-09T03:45:59;12.53;;;7.67;;
17175;SDS011;8703;48.996;9.594;2023-04-09T03:48:28;12.30;;;7.90;;
17175;SDS011;8703;48.996;9.594;2023-04-09T03:50:55;12.20;;;7.70;;
17175;SDS011;8703;48.996;9.594;2023-04-09T03:53:22;12.43;;;7.97;;
17175;SDS011;8703;48.996;9.594;2023-04-09T03:55:50;11.27;;;7.57;;
17175;SDS011;8703;48.996;9.594;2023-04-09T03:58:17;11.60;;;7.87;;
17175;SDS011;8703;48.996;9.594;2023-04-09T04:00:44;11.97;;;7.90;;
17175;SDS011;8703;48.996;9.594;2023-04-09T04:03:12;11.73;;;7.73;;
17175;SDS011;8703;48.996;9.594;2023-04-09T04:05:41;12.43;;;7.70;;
17175;SDS011;8703;48.996;9.594;2023-04-09T04:08:08;13.47;;;8.70;;
17175;SDS011;8703;48.996;9.594;2023-04-09T04:10:36;11.10;;;7.37;;
17175;SDS011;8703;48.996;9.594;2023-04-09T04:13:04;10.10;;;6.77;;
17175;SDS011;8703;48.996;9.594;2023-04-09T04:15:32;11.93;;;7.53;;
17175;SDS011;8703;48.996;9.594;2023-04-09T04:18:04;11.30;;;7.20;;
17175;SDS011;8703;48.996;9.594;2023-04-09T04:20:31;13.17;;;7.83;;
17175;SDS011;8703;48.996;9.594;2023-04-09T04:23:00;10.17;;;7.07;;
17175;SDS011;8703;48.996;9.594;2023-04-09T04:25:27;12.17;;;6.93;;
17175;SDS011;8703;48.996;9.594;2023-04-09T04:27:54;10.40;;;6.47;;
17175;SDS011;8703;48.996;9.594;2023-04-09T04:30:22;10.90;;;7.07;;
17175;SDS011;8703;48.996;9.594;2023-04-09T04:32:49;12.17;;;7.30;;
17175;SDS011;8703;48.996;9.594;2023-04-09T04:35:17;11.77;;;6.53;;
17175;SDS011;8703;48.996;9.594;2023-04-09T04:37:44;12.33;;;6.13;;
17175;SDS011;8703;48.996;9.594;2023-04-09T04:40:17;9.53;;;6.47;;
17175;SDS011;8703;48.996;9.594;2023-04-09T04:42:44;10.77;;;7.37;;
17175;SDS011;8703;48.996;9.594;2023-04-09T04:45:11;9.37;;;6.70;;
17175;SDS011;8703;48.996;9.594;2023-04-09T04:47:39;10.20;;;6.43;;
17175;SDS011;8703;48.996;9.594;2023-04-09T04:50:06;12.47;;;8.03;;
17175;SDS011;8703;48.996;9.594;2023-04-09T04:52:34;11.03;;;6.93;;
17175;SDS011;8703;48.996;9.594;2023-04-09T04:55:03;11.63;;;7.33;;
17175;SDS011;8703;48.996;9.594;2023-04-09T04:57:32;12.23;;;7.50;;
17175;SDS011;8703;48.996;9.594;2023-04-09T04:59:59;14.50;;;8.40;;
17175;SDS011;8703;48.996;9.594;2023-04-09T05:02:27;18.37;;;9.87;;
17175;SDS011;8703;48.996;9.594;2023-04-09T05:04:54;16.60;;;8.93;;
17175;SDS011;8703;48.996;9.594;2023-04-09T05:07:21;17.43;;;9.00;;
17175;SDS011;8703;48.996;9.594;2023-04-09T05:09:49;12.53;;;7.83;;
17175;SDS011;8703;48.996;9.594;2023-04-09T05:12:16;13.73;;;7.70;;
17175;SDS011;8703;48.996;9.594;2023-04-09T05:14:45;12.57;;;7.73;;
17175;SDS011;8703;48.996;9.594;2023-04-09T05:17:13;12.77;;;8.17;;
17175;SDS011;8703;48.996;9.594;2023-04-09T05:19:40;13.53;;;7.33;;
17175;SDS011;8703;48.996;9.594;2023-04-09T05:22:08;10.47;;;7.07;;
17175;SDS011;8703;48.996;9.594;2023-04-09T05:24:35;13.03;;;8.10;;
17175;SDS011;8703;48.996;9.594;2023-04-09T05:27:02;14.30;;;8.20;;
17175;SDS011;8703;48.996;9.594;2023-04-09T05:29:30;10.70;;;7.10;;
17175;SDS011;8703;48.996;9.594;2023-04-09T05:31:58;11.23;;;7.00;;
17175;SDS011;8703;48.996;9.594;2023-04-09T05:34:26;10.00;;;7.07;;
17175;SDS011;8703;48.996;9.594;2023-04-09T05:36:53;10.10;;;7.30;;
17175;SDS011;8703;48.996;9.594;2023-04-09T05:39:21;10.73;;;6.80;;
17175;SDS011;8703;48.996;9.594;2023-04-09T05:41:48;12.53;;;7.47;;
17175;SDS011;8703;48.996;9.594;2023-04-09T05:44:16;13.03;;;7.20;;
17175;SDS011;8703;48.996;9.594;2023-04-09T05:46:43;11.37;;;6.90;;
17175;SDS011;8703;48.996;9.594;2023-04-09T05:49:12;11.47;;;7.90;;
17175;SDS011;8703;48.996;9.594;2023-04-09T05:51:40;13.87;;;9.07;;
17175;SDS011;8703;48.996;9.594;2023-04-09T05:54:07;14.40;;;9.47;;
17175;SDS011;8703;48.996;9.594;2023-04-09T05:56:35;14.73;;;9.13;;
17175;SDS011;8703;48.996;9.594;2023-04-09T05:59:02;14.00;;;10.00;;
17175;SDS011;8703;48.996;9.594;2023-04-09T06:01:30;15.20;;;9.93;;
17175;SDS011;8703;48.996;9.594;2023-04-09T06:03:57;15.10;;;10.17;;
17175;SDS011;8703;48.996;9.594;2023-04-09T06:06:26;15.13;;;10.60;;
17175;SDS011;8703;48.996;9.594;2023-04-09T06:08:53;16.30;;;10.80;;
17175;SDS011;8703;48.996;9.594;2023-04-09T06:11:20;15.17;;;10.77;;
17175;SDS011;8703;48.996;9.594;2023-04-09T06:13:48;14.47;;;10.47;;
17175;SDS011;8703;48.996;9.594;2023-04-09T06:16:15;14.30;;;10.27;;
17175;SDS011;8703;48.996;9.594;2023-04-09T06:18:42;19.57;;;13.03;;
17175;SDS011;8703;48.996;9.594;2023-04-09T06:21:13;15.10;;;11.10;;
17175;SDS011;8703;48.996;9.594;2023-04-09T06:23:42;13.73;;;9.43;;
17175;SDS011;8703;48.996;9.594;2023-04-09T06:26:09;14.43;;;10.33;;
17175;SDS011;8703;48.996;9.594;2023-04-09T06:28:37;15.93;;;10.47;;
17175;SDS011;8703;48.996;9.594;2023-04-09T06:31:04;14.27;;;10.03;;
17175;SDS011;8703;48.996;9.594;2023-04-09T06:33:31;14.67;;;9.97;;
17175;SDS011;8703;48.996;9.594;2023-04-09T06:35:59;16.00;;;10.30;;
17175;SDS011;8703;48.996;9.594;2023-04-09T06:38:26;13.70;;;9.43;;
17175;SDS011;8703;48.996;9.594;2023-04-09T06:40:55;14.00;;;10.00;;
17175;SDS011;8703;48.996;9.594;2023-04-09T06:43:23;13.83;;;9.53;;
17175;SDS011;8703;48.996;9.594;2023-04-09T06:45:50;13.60;;;9.23;;
17175;SDS011;8703;48.996;9.594;2023-04-09T06:48:17;14.33;;;9.93;;
17175;SDS011;8703;48.996;9.594;2023-04-09T06:50:45;14.33;;;10.10;;
17175;SDS011;8703;48.996;9.594;2023-04-09T06:53:13;14.87;;;10.17;;
17175;SDS011;8703;48.996;9.594;2023-04-09T06:55:41;14.23;;;10.57;;
17175;SDS011;8703;48.996;9.594;2023-04-09T06:58:10;15.80;;;10.40;;
17175;SDS011;8703;48.996;9.594;2023-04-09T07:00:37;14.10;;;9.87;;
17175;SDS011;8703;48.996;9.594;2023-04-09T07:03:04;13.70;;;9.93;;
17175;SDS011;8703;48.996;9.594;2023-04-09T07:05:33;13.13;;;9.33;;
17175;SDS011;8703;48.996;9.594;2023-04-09T07:08:00;12.93;;;9.60;;
17175;SDS011;8703;48.996;9.594;2023-04-09T07:10:28;14.13;;;10.00;;
17175;SDS011;8703;48.996;9.594;2023-04-09T07:12:55;13.77;;;10.07;;
17175;SDS011;8703;48.996;9.594;2023-04-09T07:15:24;13.27;;;9.53;;
17175;SDS011;8703;48.996;9.594;2023-04-09T07:17:51;13.63;;;10.17;;
17175;SDS011;8703;48.996;9.594;2023-04-09T07:20:19;12.80;;;9.77;;
17175;SDS011;8703;48.996;9.594;2023-04-09T07:22:46;15.43;;;10.90;;
17175;SDS011;8703;48.996;9.594;2023-04-09T07:25:13;14.27;;;9.77;;
17175;SDS011;8703;48.996;9.594;2023-04-09T07:27:41;14.10;;;9.37;;
17175;SDS011;8703;48.996;9.594;2023-04-09T07:30:08;14.10;;;9.63;;
17175;SDS011;8703;48.996;9.594;2023-04-09T07:32:37;13.13;;;9.80;;
17175;SDS011;8703;48.996;9.594;2023-04-09T07:35:05;13.30;;;10.13;;
17175;SDS011;8703;48.996;9.594;2023-04-09T07:37:35;13.77;;;10.13;;
17175;SDS011;8703;48.996;9.594;2023-04-09T07:40:02;13.07;;;9.70;;
17175;SDS011;8703;48.996;9.594;2023-04-09T07:42:30;14.93;;;9.90;;
17175;SDS011;8703;48.996;9.594;2023-04-09T07:44:58;12.23;;;9.00;;
17175;SDS011;8703;48.996;9.594;2023-04-09T07:47:27;13.20;;;9.53;;
17175;SDS011;8703;48.996;9.594;2023-04-09T07:49:57;12.93;;;9.37;;
17175;SDS011;8703;48.996;9.594;2023-04-09T07:52:24;12.23;;;8.87;;
17175;SDS011;8703;48.996;9.594;2023-04-09T07:54:51;12.23;;;9.33;;
17175;SDS011;8703;48.996;9.594;2023-04-09T07:57:19;12.10;;;8.80;;
17175;SDS011;8703;48.996;9.594;2023-04-09T07:59:46;10.93;;;8.07;;
17175;SDS011;8703;48.996;9.594;2023-04-09T08:02:14;11.33;;;8.23;;
17175;SDS011;8703;48.996;9.594;2023-04-09T08:04:41;10.50;;;7.77;;
17175;SDS011;8703;48.996;9.594;2023-04-09T08:07:10;10.47;;;8.03;;
17175;SDS011;8703;48.996;9.594;2023-04-09T08:09:37;10.73;;;8.07;;
17175;SDS011;8703;48.996;9.594;2023-04-09T08:12:05;11.53;;;8.33;;
17175;SDS011;8703;48.996;9.594;2023-04-09T08:14:32;12.80;;;8.00;;
17175;SDS011;8703;48.996;9.594;2023-04-09T08:16:59;9.50;;;7.57;;
17175;SDS011;8703;48.996;9.594;2023-04-09T08:19:27;8.87;;;7.20;;
17175;SDS011;8703;48.996;9.594;2023-04-09T08:21:54;8.97;;;7.00;;
17175;SDS011;8703;48.996;9.594;2023-04-09T08:24:24;9.07;;;7.20;;
17175;SDS011;8703;48.996;9.594;2023-04-09T08:26:51;8.87;;;7.10;;
17175;SDS011;8703;48.996;9.594;2023-04-09T08:29:19;7.90;;;6.40;;
17175;SDS011;8703;48.996;9.594;2023-04-09T08:31:46;8.97;;;7.23;;
17175;SDS011;8703;48.996;9.594;2023-04-09T08:34:13;8.47;;;6.57;;
17175;SDS011;8703;48.996;9.594;2023-04-09T08:36:44;8.70;;;7.00;;
17175;SDS011;8703;48.996;9.594;2023-04-09T08:39:14;8.57;;;6.73;;
17175;SDS011;8703;48.996;9.594;2023-04-09T08:41:44;9.10;;;7.13;;
17175;SDS011;8703;48.996;9.594;2023-04-09T08:44:12;9.50;;;7.00;;
17175;SDS011;8703;48.996;9.594;2023-04-09T08:46:39;8.17;;;6.63;;
17175;SDS011;8703;48.996;9.594;2023-04-09T08:49:07;8.03;;;6.17;;
17175;SDS011;8703;48.996;9.594;2023-04-09T08:51:35;9.07;;;6.17;;
17175;SDS011;8703;48.996;9.594;2023-04-09T08:54:03;7.53;;;6.23;;
17175;SDS011;8703;48.996;9.594;2023-04-09T08:56:30;7.17;;;5.63;;
17175;SDS011;8703;48.996;9.594;2023-04-09T08:58:59;6.90;;;5.53;;
17175;SDS011;8703;48.996;9.594;2023-04-09T09:01:27;7.90;;;6.13;;
17175;SDS011;8703;48.996;9.594;2023-04-09T09:03:56;7.20;;;5.93;;
17175;SDS011;8703;48.996;9.594;2023-04-09T09:06:25;6.90;;;5.83;;
17175;SDS011;8703;48.996;9.594;2023-04-09T09:09:06;7.97;;;5.90;;
17175;SDS011;8703;48.996;9.594;2023-04-09T09:11:35;6.90;;;5.53;;
17175;SDS011;8703;48.996;9.594;2023-04-09T09:14:05;7.17;;;6.03;;
17175;SDS011;8703;48.996;9.594;2023-04-09T09:16:32;7.10;;;6.00;;
17175;SDS011;8703;48.996;9.594;2023-04-09T09:19:04;6.43;;;5.60;;
17175;SDS011;8703;48.996;9.594;2023-04-09T09:21:31;6.40;;;5.73;;
17175;SDS011;8703;48.996;9.594;2023-04-09T09:24:00;6.37;;;5.37;;
17175;SDS011;8703;48.996;9.594;2023-04-09T09:26:28;6.37;;;5.63;;
17175;SDS011;8703;48.996;9.594;2023-04-09T09:28:56;6.50;;;5.67;;
17175;SDS011;8703;48.996;9.594;2023-04-09T09:31:25;5.90;;;5.30;;
17175;SDS011;8703;48.996;9.594;2023-04-09T09:33:53;6.00;;;5.40;;
17175;SDS011;8703;48.996;9.594;2023-04-09T09:36:30;5.90;;;4.80;;
17175;SDS011;8703;48.996;9.594;2023-04-09T09:38:59;6.00;;;5.43;;
17175;SDS011;8703;48.996;9.594;2023-04-09T09:41:29;6.33;;;5.53;;
17175;SDS011;8703;48.996;9.594;2023-04-09T09:43:57;6.23;;;5.20;;
17175;SDS011;8703;48.996;9.594;2023-04-09T09:46:25;5.73;;;5.23;;
17175;SDS011;8703;48.996;9.594;2023-04-09T09:48:53;5.17;;;4.67;;
17175;SDS011;8703;48.996;9.594;2023-04-09T09:51:21;5.60;;;4.90;;
17175;SDS011;8703;48.996;9.594;2023-04-09T09:53:55;5.10;;;4.60;;
17175;SDS011;8703;48.996;9.594;2023-04-09T09:56:23;6.40;;;5.50;;
17175;SDS011;8703;48.996;9.594;2023-04-09T09:59:00;5.30;;;4.70;;
17175;SDS011;8703;48.996;9.594;2023-04-09T10:01:33;5.57;;;5.07;;
17175;SDS011;8703;48.996;9.594;2023-04-09T10:04:01;5.13;;;4.63;;
17175;SDS011;8703;48.996;9.594;2023-04-09T10:06:29;5.10;;;4.60;;
17175;SDS011;8703;48.996;9.594;2023-04-09T10:08:59;5.00;;;4.50;;
17175;SDS011;8703;48.996;9.594;2023-04-09T10:11:30;4.10;;;3.70;;
17175;SDS011;8703;48.996;9.594;2023-04-09T10:13:59;4.57;;;3.77;;
17175;SDS011;8703;48.996;9.594;2023-04-09T10:16:26;4.23;;;3.83;;
17175;SDS011;8703;48.996;9.594;2023-04-09T10:18:55;4.13;;;3.73;;
17175;SDS011;8703;48.996;9.594;2023-04-09T10:21:25;3.97;;;3.57;;
17175;SDS011;8703;48.996;9.594;2023-04-09T10:23:58;4.23;;;3.83;;
17175;SDS011;8703;48.996;9.594;2023-04-09T10:26:31;4.50;;;4.10;;
17175;SDS011;8703;48.996;9.594;2023-04-09T10:29:05;4.23;;;3.83;;
17175;SDS011;8703;48.996;9.594;2023-04-09T10:31:47;3.83;;;3.43;;
17175;SDS011;8703;48.996;9.594;2023-04-09T10:34:19;4.63;;;4.23;;
17175;SDS011;8703;48.996;9.594;2023-04-09T10:36:49;4.87;;;4.47;;
17175;SDS011;8703;48.996;9.594;2023-04-09T10:39:18;5.00;;;4.50;;
17175;SDS011;8703;48.996;9.594;2023-04-09T10:41:47;4.40;;;3.70;;
17175;SDS011;8703;48.996;9.594;2023-04-09T10:44:21;5.20;;;4.70;;
17175;SDS011;8703;48.996;9.594;2023-04-09T10:46:51;5.27;;;4.77;;
17175;SDS011;8703;48.996;9.594;2023-04-09T10:49:20;4.80;;;4.30;;
17175;SDS011;8703;48.996;9.594;2023-04-09T10:51:51;4.63;;;4.13;;
17175;SDS011;8703;48.996;9.594;2023-04-09T10:54:39;4.83;;;4.17;;
17175;SDS011;8703;48.996;9.594;2023-04-09T10:57:17;4.00;;;3.60;;
17175;SDS011;8703;48.996;9.594;2023-04-09T10:59:45;4.33;;;3.93;;
17175;SDS011;8703;48.996;9.594;2023-04-09T11:05:24;4.27;;;3.70;;
17175;SDS011;8703;48.996;9.594;2023-04-09T11:07:57;4.30;;;3.90;;
17175;SDS011;8703;48.996;9.594;2023-04-09T11:10:29;4.27;;;3.83;;
17175;SDS011;8703;48.996;9.594;2023-04-09T11:12:57;4.53;;;4.13;;
17175;SDS011;8703;48.996;9.594;2023-04-09T11:15:25;4.30;;;3.90;;
17175;SDS011;8703;48.996;9.594;2023-04-09T11:17:52;4.70;;;4.30;;
17175;SDS011;8703;48.996;9.594;2023-04-09T11:20:23;4.40;;;4.00;;
17175;SDS011;8703;48.996;9.594;2023-04-09T11:22:52;3.90;;;3.60;;
17175;SDS011;8703;48.996;9.594;2023-04-09T11:25:20;4.13;;;3.72;;
17175;SDS011;8703;48.996;9.594;2023-04-09T11:27:49;5.35;;;4.40;;
17175;SDS011;8703;48.996;9.594;2023-04-09T11:30:17;4.97;;;4.22;;
17175;SDS011;8703;48.996;9.594;2023-04-09T11:32:45;3.92;;;3.63;;
17175;SDS011;8703;48.996;9.594;2023-04-09T11:35:13;4.10;;;3.70;;
17175;SDS011;8703;48.996;9.594;2023-04-09T11:37:43;4.15;;;3.75;;
17175;SDS011;8703;48.996;9.594;2023-04-09T11:40:14;4.25;;;3.85;;
17175;SDS011;8703;48.996;9.594;2023-04-09T11:42:42;3.53;;;3.22;;
17175;SDS011;8703;48.996;9.594;2023-04-09T11:45:10;3.85;;;3.45;;
17175;SDS011;8703;48.996;9.594;2023-04-09T11:47:40;4.05;;;3.75;;
17175;SDS011;8703;48.996;9.594;2023-04-09T11:50:09;4.10;;;3.70;;
17175;SDS011;8703;48.996;9.594;2023-04-09T11:52:37;4.32;;;3.92;;
17175;SDS011;8703;48.996;9.594;2023-04-09T11:55:07;4.30;;;3.90;;
17175;SDS011;8703;48.996;9.594;2023-04-09T11:57:35;4.28;;;3.88;;
17175;SDS011;8703;48.996;9.594;2023-04-09T12:00:05;4.47;;;4.07;;
17175;SDS011;8703;48.996;9.594;2023-04-09T12:02:36;4.40;;;4.00;;
17175;SDS011;8703;48.996;9.594;2023-04-09T12:05:04;3.90;;;3.60;;
17175;SDS011;8703;48.996;9.594;2023-04-09T12:07:36;3.92;;;3.55;;
17175;SDS011;8703;48.996;9.594;2023-04-09T12:10:04;4.05;;;3.65;;
17175;SDS011;8703;48.996;9.594;2023-04-09T12:12:42;4.07;;;3.67;;
17175;SDS011;8703;48.996;9.594;2023-04-09T12:15:11;3.70;;;3.40;;
17175;SDS011;8703;48.996;9.594;2023-04-09T12:17:49;5.95;;;4.80;;
17175;SDS011;8703;48.996;9.594;2023-04-09T12:20:30;4.00;;;3.60;;
17175;SDS011;8703;48.996;9.594;2023-04-09T12:23:00;3.47;;;3.17;;
17175;SDS011;8703;48.996;9.594;2023-04-09T12:25:30;4.20;;;3.80;;
17175;SDS011;8703;48.996;9.594;2023-04-09T12:27:59;3.65;;;3.35;;
17175;SDS011;8703;48.996;9.594;2023-04-09T12:30:27;3.92;;;3.47;;
17175;SDS011;8703;48.996;9.594;2023-04-09T12:32:54;4.90;;;4.38;;
17175;SDS011;8703;48.996;9.594;2023-04-09T12:35:22;4.43;;;3.45;;
17175;SDS011;8703;48.996;9.594;2023-04-09T12:37:49;4.20;;;3.33;;
17175;SDS011;8703;48.996;9.594;2023-04-09T12:40:17;3.17;;;2.97;;
17175;SDS011;8703;48.996;9.594;2023-04-09T12:42:46;3.60;;;3.30;;
17175;SDS011;8703;48.996;9.594;2023-04-09T12:45:14;6.28;;;4.20;;
17175;SDS011;8703;48.996;9.594;2023-04-09T12:48:01;17.83;;;8.23;;
17175;SDS011;8703;48.996;9.594;2023-04-09T12:50:28;6.13;;;4.85;;
17175;SDS011;8703;48.996;9.594;2023-04-09T12:52:57;7.93;;;4.75;;
17175;SDS011;8703;48.996;9.594;2023-04-09T12:55:24;6.70;;;4.57;;
17175;SDS011;8703;48.996;9.594;2023-04-09T12:57:53;9.63;;;5.80;;
17175;SDS011;8703;48.996;9.594;2023-04-09T13:00:21;6.15;;;4.55;;
17175;SDS011;8703;48.996;9.594;2023-04-09T13:02:48;5.32;;;4.50;;
17175;SDS011;8703;48.996;9.594;2023-04-09T13:05:16;5.75;;;4.57;;
17175;SDS011;8703;48.996;9.594;2023-04-09T13:07:43;4.78;;;4.20;;
17175;SDS011;8703;48.996;9.594;2023-04-09T13:10:11;4.80;;;4.30;;
17175;SDS011;8703;48.996;9.594;2023-04-09T13:12:38;4.82;;;4.43;;
17175;SDS011;8703;48.996;9.594;2023-04-09T13:15:07;4.70;;;4.20;;
17175;SDS011;8703;48.996;9.594;2023-04-09T13:17:35;5.90;;;5.30;;
17175;SDS011;8703;48.996;9.594;2023-04-09T13:20:03;6.28;;;4.85;;
17175;SDS011;8703;48.996;9.594;2023-04-09T13:22:31;4.90;;;4.45;;
17175;SDS011;8703;48.996;9.594;2023-04-09T18:46:07;12.97;;;9.70;;
17175;SDS011;8703;48.996;9.594;2023-04-09T18:48:34;6.67;;;5.13;;
17175;SDS011;8703;48.996;9.594;2023-04-09T18:51:02;8.00;;;5.30;;
17175;SDS011;8703;48.996;9.594;2023-04-09T18:53:30;5.97;;;4.53;;
17175;SDS011;8703;48.996;9.594;2023-04-09T18:55:57;7.63;;;5.83;;
17175;SDS011;8703;48.996;9.594;2023-04-09T18:58:24;7.07;;;5.73;;
17175;SDS011;8703;48.996;9.594;2023-04-09T19:00:52;8.93;;;5.63;;
17175;SDS011;8703;48.996;9.594;2023-04-09T19:03:20;6.40;;;5.30;;
17175;SDS011;8703;48.996;9.594;2023-04-09T19:05:48;6.83;;;5.10;;
17175;SDS011;8703;48.996;9.594;2023-04-09T19:08:16;6.50;;;5.30;;
17175;SDS011;8703;48.996;9.594;2023-04-09T19:10:43;8.13;;;5.70;;
17175;SDS011;8703;48.996;9.594;2023-04-09T19:13:11;9.47;;;5.57;;
17175;SDS011;8703;48.996;9.594;2023-04-09T19:15:39;7.17;;;5.73;;
17175;SDS011;8703;48.996;9.594;2023-04-09T19:18:07;7.00;;;5.67;;
17175;SDS011;8703;48.996;9.594;2023-04-09T19:20:36;8.90;;;6.47;;
17175;SDS011;8703;48.996;9.594;2023-04-09T19:23:03;7.67;;;6.17;;
17175;SDS011;8703;48.996;9.594;2023-04-09T19:25:33;7.07;;;5.37;;
17175;SDS011;8703;48.996;9.594;2023-04-09T19:28:03;8.60;;;5.87;;
17175;SDS011;8703;48.996;9.594;2023-04-09T19:30:31;10.00;;;5.83;;
17175;SDS011;8703;48.996;9.594;2023-04-09T19:32:58;10.33;;;7.00;;
17175;SDS011;8703;48.996;9.594;2023-04-09T19:35:25;10.93;;;8.23;;
17175;SDS011;8703;48.996;9.594;2023-04-09T19:37:54;8.70;;;5.70;;
17175;SDS011;8703;48.996;9.594;2023-04-09T19:40:22;7.37;;;5.40;;
17175;SDS011;8703;48.996;9.594;2023-04-09T19:42:49;8.77;;;6.17;;
17175;SDS011;8703;48.996;9.594;2023-04-09T19:45:16;12.17;;;8.17;;
17175;SDS011;8703;48.996;9.594;2023-04-09T19:47:44;9.67;;;6.80;;
17175;SDS011;8703;48.996;9.594;2023-04-09T19:50:11;9.30;;;6.57;;
17175;SDS011;8703;48.996;9.594;2023-04-09T19:52:39;44.70;;;26.53;;
17175;SDS011;8703;48.996;9.594;2023-04-09T19:55:08;17.13;;;11.73;;
17175;SDS011;8703;48.996;9.594;2023-04-09T19:57:36;13.43;;;7.63;;
17175;SDS011;8703;48.996;9.594;2023-04-09T20:00:05;13.47;;;8.50;;
17175;SDS011;8703;48.996;9.594;2023-04-09T20:02:33;13.53;;;8.70;;
17175;SDS011;8703;48.996;9.594;2023-04-09T20:05:01;11.50;;;8.67;;
17175;SDS011;8703;48.996;9.594;2023-04-09T20:07:29;12.27;;;8.20;;
17175;SDS011;8703;48.996;9.594;2023-04-09T20:09:56;11.10;;;6.77;;
17175;SDS011;8703;48.996;9.594;2023-04-09T20:12:25;9.53;;;6.13;;
17175;SDS011;8703;48.996;9.594;2023-04-09T20:14:53;8.77;;;5.93;;
17175;SDS011;8703;48.996;9.594;2023-04-09T20:17:21;8.47;;;6.43;;
17175;SDS011;8703;48.996;9.594;2023-04-09T20:19:48;11.40;;;7.00;;
17175;SDS011;8703;48.996;9.594;2023-04-09T20:22:16;9.50;;;6.60;;
17175;SDS011;8703;48.996;9.594;2023-04-09T20:24:43;16.97;;;10.87;;
17175;SDS011;8703;48.996;9.594;2023-04-09T20:27:12;15.03;;;8.67;;